Herschel Island, Yukon

Past 24 Hour Conditions

This table is a summary of hourly weather conditions for the past 24 hours. This summary includes the following parameters: temperature, humidity, dew point, wind speed and direction, air pressure, visibility and/or wind chill and humidex.
Date / Time
(PDT)
Conditions Temp (°F) Humidity (%) Dew Point (°F) Wind (mph) Pressure (inches) Vis (mi) Wind Chill
19 April 2014
6:00 N/A 20   95 18 NE 4 29.9 N/A 13
5:00 N/A 20   95 19 ENE 3 29.9 N/A 15
4:00 N/A 20   95 19 NE 7 29.9 N/A 11
3:00 N/A 20   95 19 NNE 7 29.9 N/A 11
2:00 N/A 20   96 19 NNE 5 29.9 N/A 14
1:00 N/A 21 96 19 NNE 7 29.9 N/A 12
00:00 N/A 21 96 20 NNE 7 29.9 N/A 12
18 April 2014
23:00 N/A 21 96 20 NNE 6 29.9 N/A 13
22:00 N/A 22 96 21 N 5 29.9 N/A 16
21:00 N/A 22 97 21 N 4 29.9 N/A 17
20:00 N/A 22 97 21 N 5 29.8 N/A 15
19:00 N/A 23   97 22 N 4 29.8 N/A 17
18:00 N/A 23   97 22 N 3 29.8 N/A 18
17:00 N/A 23   97 22 NNE 4 29.8 N/A 17
16:00 N/A 23   97 22 NE 7 29.8 N/A 14
15:00 N/A 23   97 22 NE 11 29.8 N/A 12
14:00 N/A 22 97 21 NE 9 29.8 N/A 12
13:00 N/A 23   97 22 NE 9 29.8 N/A 13
12:00 N/A 23   96 22 NNE 8 29.8 N/A 14
11:00 N/A 22 96 21 NNE 7 29.8 N/A 13
10:00 N/A 21 96 20 N 6 29.8 N/A 13
9:00 N/A 21 96 20 NNW 6 29.8 N/A 13
8:00 N/A 21 96 20 NNW 8 29.8 N/A 12
7:00 N/A 21 96 20 NNW 7 29.8 N/A 12
6:00 N/A 21 96 19 NNW 9 29.7 N/A 10
N/A
Not available
 ↑ 
Highest temperature
 ↓ 
Lowest temperature
*
Value not significant.

If you require additional historical weather information, please visit Climate Data Online.